North Robinson, Ohio
Current Conditions -  °F | °C
As of 5:53 PM on Thursday 20 Nov 2014 (Local Time) from KMNN Reporting Station
Broken Clouds Broken Clouds  
Wind Chill: 13°   Ceiling: 4700
Heat Index: 24°   Visibility: 10mi
Dew Point: 12°   Wind: 12mph
Humidity: 60%   Direction: 260°W
Pressure: 30.09"   Gusts: NA
Location:  40.79°N, 82.86°W
Report Text: KMNN 202253Z AUTO 26010KT 10SM BKN047 M04/M11 A3009 RMK AO2 SLP207 T10441111 TSNO
Loading
Personal Weather Stations






























Interactive Weather Map New forecast layout! Learn more

10-Day Weather Forecast

Advertisements
Track Severe Weather on mobile